createdAt,value
2023-03-07T00:02:10.203Z,2.79
2023-03-07T00:07:15.358Z,2.81
2023-03-07T00:12:17.254Z,2.82
2023-03-07T00:17:19.070Z,2.83
2023-03-07T00:22:20.906Z,2.83
2023-03-07T00:27:22.710Z,2.83
2023-03-07T00:32:25.039Z,2.81
2023-03-07T00:37:27.202Z,2.81
2023-03-07T00:42:29.067Z,2.78
2023-03-07T00:47:30.966Z,2.78
2023-03-07T00:52:34.068Z,2.78
2023-03-07T00:57:36.687Z,2.76
2023-03-07T01:02:38.504Z,2.72
2023-03-07T01:07:40.316Z,2.72
2023-03-07T01:12:45.432Z,2.73
2023-03-07T01:17:47.433Z,2.76
2023-03-07T01:22:49.278Z,2.78
2023-03-07T01:27:55.908Z,2.81
2023-03-07T01:33:01.390Z,2.83
2023-03-07T01:38:03.886Z,2.84
2023-03-07T01:43:27.198Z,2.84
2023-03-07T01:48:35.575Z,2.82
2023-03-07T01:53:37.903Z,2.83
2023-03-07T01:58:41.592Z,2.84
2023-03-07T02:03:55.503Z,2.84
2023-03-07T02:09:00.800Z,2.79
2023-03-07T02:14:02.710Z,2.78
2023-03-07T02:19:16.208Z,2.75
2023-03-07T02:25:06.418Z,2.72
2023-03-07T02:30:09.564Z,2.71
2023-03-07T02:35:24.366Z,2.70
2023-03-07T02:40:32.649Z,2.69
2023-03-07T02:45:35.633Z,2.70
2023-03-07T02:50:37.714Z,2.70
2023-03-07T02:55:40.077Z,2.69
2023-03-07T03:00:43.670Z,2.68
2023-03-07T03:05:45.797Z,2.67
2023-03-07T03:10:54.076Z,2.60
2023-03-07T03:15:59.991Z,2.56
2023-03-07T03:21:08.932Z,2.55
2023-03-07T03:26:11.900Z,2.51
2023-03-07T03:31:15.587Z,2.52
2023-03-07T03:36:17.867Z,2.51
2023-03-07T03:41:32.339Z,2.51
2023-03-07T03:46:35.114Z,2.51
2023-03-07T03:51:37.455Z,2.48
2023-03-07T03:56:39.571Z,2.47
2023-03-07T04:01:42.110Z,2.44
2023-03-07T04:06:44.891Z,2.42
2023-03-07T04:11:47.616Z,2.38
2023-03-07T04:16:49.947Z,2.38
2023-03-07T04:21:52.061Z,2.36
2023-03-07T04:26:54.051Z,2.32
2023-03-07T04:31:57.011Z,2.33
2023-03-07T04:36:59.134Z,2.32
2023-03-07T04:42:01.065Z,2.31
2023-03-07T04:47:09.107Z,2.32
2023-03-07T04:52:12.040Z,2.35
2023-03-07T04:57:14.716Z,2.38
2023-03-07T05:02:17.841Z,2.39
2023-03-07T05:07:19.954Z,2.42
2023-03-07T05:12:23.511Z,2.43
2023-03-07T05:17:25.799Z,2.48
2023-03-07T05:22:27.965Z,2.50
2023-03-07T05:27:30.243Z,2.51
2023-03-07T05:32:34.522Z,2.53
2023-03-07T05:37:36.884Z,2.55
2023-03-07T05:42:39.632Z,2.56
2023-03-07T05:47:42.041Z,2.59
2023-03-07T05:52:46.147Z,2.62
2023-03-07T05:57:50.109Z,2.65
2023-03-07T06:02:53.129Z,2.68
2023-03-07T06:07:55.149Z,2.71
2023-03-07T06:12:57.355Z,2.74
2023-03-07T06:17:59.916Z,2.78
2023-03-07T06:23:01.995Z,2.80
2023-03-07T06:28:05.067Z,2.83
2023-03-07T06:33:08.170Z,2.84
2023-03-07T06:38:12.299Z,2.88
2023-03-07T06:43:14.700Z,2.90
2023-03-07T06:48:18.143Z,2.92
2023-03-07T06:53:21.278Z,2.97
2023-03-07T06:58:23.801Z,2.99
2023-03-07T07:08:57.886Z,3.04
2023-03-07T07:14:03.875Z,3.09
2023-03-07T07:19:05.842Z,3.11
2023-03-07T07:24:12.481Z,3.15
2023-03-07T07:29:15.959Z,3.18
2023-03-07T07:34:18.248Z,3.21
2023-03-07T07:39:21.993Z,3.25
2023-03-07T07:44:23.924Z,3.30
2023-03-07T07:49:32.921Z,3.35
2023-03-07T07:54:34.940Z,3.40
2023-03-07T07:59:37.195Z,3.41
2023-03-07T08:04:41.562Z,3.45
2023-03-07T08:09:43.458Z,3.46
2023-03-07T08:14:45.314Z,3.48
2023-03-07T08:19:47.226Z,3.50
2023-03-07T08:24:50.853Z,3.54
2023-03-07T08:29:52.893Z,3.57
2023-03-07T08:34:54.712Z,3.62
2023-03-07T08:39:56.425Z,3.73
2023-03-07T08:44:58.188Z,3.84
2023-03-07T08:50:00.182Z,3.98
2023-03-07T08:55:02.039Z,4.08
2023-03-07T09:00:06.806Z,4.17
2023-03-07T09:05:09.684Z,4.24
2023-03-07T09:10:12.222Z,4.31
2023-03-07T09:15:14.491Z,4.39
2023-03-07T09:20:17.229Z,4.49
2023-03-07T09:25:19.091Z,4.54
2023-03-07T09:30:22.808Z,4.58
2023-03-07T09:35:25.293Z,4.60
2023-03-07T09:40:28.153Z,4.64
2023-03-07T09:45:50.532Z,4.70
2023-03-07T09:51:13.070Z,4.74
2023-03-07T09:56:53.842Z,4.76
2023-03-07T10:02:32.086Z,4.83
2023-03-07T10:07:35.697Z,4.92
2023-03-07T10:12:46.152Z,4.99
2023-03-07T10:18:13.566Z,5.07
2023-03-07T10:23:15.513Z,5.12
2023-03-07T10:28:28.395Z,5.22
2023-03-07T10:33:31.044Z,5.32
2023-03-07T10:39:01.932Z,5.44
2023-03-07T10:44:03.901Z,5.58
2023-03-07T10:49:14.874Z,5.69
2023-03-07T10:54:24.509Z,5.76
2023-03-07T10:59:26.481Z,5.82
2023-03-07T11:04:30.573Z,5.96
2023-03-07T11:09:35.079Z,6.09
2023-03-07T11:14:49.053Z,6.18
2023-03-07T11:19:55.564Z,6.18
2023-03-07T11:25:20.968Z,6.28
2023-03-07T11:30:46.919Z,6.29
2023-03-07T11:36:02.601Z,6.27
2023-03-07T11:41:20.762Z,6.32
2023-03-07T11:46:33.616Z,6.33
2023-03-07T11:51:59.328Z,6.29
2023-03-07T11:57:17.816Z,6.32
2023-03-07T12:02:44.322Z,6.39
2023-03-07T12:08:08.285Z,6.38
2023-03-07T12:13:36.217Z,6.40
2023-03-07T12:18:40.631Z,6.39
2023-03-07T12:23:53.007Z,6.40
2023-03-07T12:29:10.705Z,6.43
2023-03-07T12:34:33.803Z,6.44
2023-03-07T12:39:49.534Z,6.44
2023-03-07T12:44:59.783Z,6.49
2023-03-07T12:50:58.203Z,6.56
2023-03-07T12:56:11.947Z,6.61
2023-03-07T13:01:22.956Z,6.63
2023-03-07T13:06:25.851Z,6.61
2023-03-07T13:11:31.406Z,6.65
2023-03-07T13:16:38.125Z,6.73
2023-03-07T13:21:40.025Z,6.80
2023-03-07T13:26:42.552Z,6.89
2023-03-07T13:31:44.833Z,6.95
2023-03-07T13:36:47.049Z,6.96
2023-03-07T13:41:50.715Z,6.99
2023-03-07T13:46:55.908Z,7.00
2023-03-07T13:52:24.498Z,6.98
2023-03-07T13:57:30.934Z,7.00
2023-03-07T14:02:35.067Z,6.96
2023-03-07T14:07:43.236Z,7.01
2023-03-07T14:13:15.453Z,7.03
2023-03-07T14:18:44.750Z,7.01
2023-03-07T14:24:15.635Z,6.97
2023-03-07T14:29:22.254Z,6.89
2023-03-07T14:34:30.239Z,6.83
2023-03-07T14:39:43.147Z,6.82
2023-03-07T14:45:03.649Z,6.76
2023-03-07T14:50:19.225Z,6.71
2023-03-07T14:55:24.478Z,6.72
2023-03-07T15:00:32.834Z,6.70
2023-03-07T15:05:49.930Z,6.67
2023-03-07T15:11:13.437Z,6.66
2023-03-07T15:16:47.312Z,6.62
2023-03-07T15:22:00.368Z,6.59
2023-03-07T15:27:04.583Z,6.56
2023-03-07T15:32:07.785Z,6.53
2023-03-07T15:37:27.814Z,6.48
2023-03-07T15:42:30.282Z,6.46
2023-03-07T15:47:33.075Z,6.39
2023-03-07T15:52:38.425Z,6.38
2023-03-07T15:57:51.758Z,6.35
2023-03-07T16:02:53.976Z,6.35
2023-03-07T16:07:57.521Z,6.33
2023-03-07T16:13:01.801Z,6.30
2023-03-07T16:18:06.967Z,6.27
2023-03-07T16:23:13.119Z,6.26
2023-03-07T16:28:15.029Z,6.24
2023-03-07T16:33:16.953Z,6.22
2023-03-07T16:38:18.749Z,6.21
2023-03-07T16:43:29.820Z,6.20
2023-03-07T16:48:32.412Z,6.19
2023-03-07T16:53:34.314Z,6.17
2023-03-07T16:58:36.816Z,6.17
2023-03-07T17:03:39.811Z,6.16
2023-03-07T17:08:41.824Z,6.15
2023-03-07T17:13:43.841Z,6.16
2023-03-07T17:18:46.312Z,6.16
2023-03-07T17:23:49.342Z,6.17
2023-03-07T17:28:53.519Z,6.18
2023-03-07T17:33:56.652Z,6.21
2023-03-07T17:38:58.533Z,6.19
2023-03-07T17:44:00.353Z,5.91
2023-03-07T17:49:02.373Z,5.65
2023-03-07T17:54:08.295Z,5.37
2023-03-07T17:59:10.129Z,5.18
2023-03-07T18:04:12.347Z,4.99
2023-03-07T18:09:15.453Z,4.85
2023-03-07T18:14:17.645Z,4.71
2023-03-07T18:19:26.332Z,4.60
2023-03-07T18:24:32.611Z,4.51
2023-03-07T18:29:35.204Z,4.47
2023-03-07T18:34:37.617Z,4.46
2023-03-07T18:39:39.595Z,4.43
2023-03-07T18:44:42.166Z,4.43
2023-03-07T18:49:44.183Z,4.43
2023-03-07T18:54:48.395Z,4.42
2023-03-07T18:59:51.202Z,4.42
2023-03-07T19:04:54.126Z,4.42
2023-03-07T19:10:02.720Z,4.42
2023-03-07T19:15:05.019Z,4.43
2023-03-07T19:20:07.662Z,4.42
2023-03-07T19:25:10.316Z,4.41
2023-03-07T19:30:12.816Z,4.43
2023-03-07T19:35:14.781Z,4.41
2023-03-07T19:40:16.621Z,4.37
2023-03-07T19:45:19.015Z,4.35
2023-03-07T19:50:21.124Z,4.36
2023-03-07T19:55:24.716Z,4.38
2023-03-07T20:00:26.657Z,4.41
2023-03-07T20:05:28.543Z,4.44
2023-03-07T20:10:30.449Z,4.43
2023-03-07T20:15:33.383Z,4.38
2023-03-07T20:20:36.153Z,4.38
2023-03-07T20:25:38.049Z,4.39
2023-03-07T20:30:40.938Z,4.37
2023-03-07T20:35:42.830Z,4.34
2023-03-07T20:40:44.686Z,4.35
2023-03-07T20:45:47.169Z,4.32
2023-03-07T20:50:48.981Z,4.30
2023-03-07T20:55:51.986Z,4.29
2023-03-07T21:00:54.317Z,4.29
2023-03-07T21:06:01.225Z,4.28
2023-03-07T21:11:10.929Z,4.25
2023-03-07T21:16:18.511Z,4.16
2023-03-07T21:21:22.457Z,4.12
2023-03-07T21:26:29.902Z,4.11
2023-03-07T21:31:34.349Z,4.09
2023-03-07T21:36:36.202Z,4.04
2023-03-07T21:41:40.256Z,4.03
2023-03-07T21:46:42.632Z,4.02
2023-03-07T21:51:55.224Z,4.02
2023-03-07T21:57:01.269Z,3.98
2023-03-07T22:02:03.074Z,3.97
2023-03-07T22:07:04.991Z,3.98
2023-03-07T22:12:07.452Z,3.99
2023-03-07T22:17:09.298Z,4.00
2023-03-07T22:22:11.243Z,3.95
2023-03-07T22:27:13.065Z,3.94
2023-03-07T22:32:14.887Z,3.94
2023-03-07T22:37:17.468Z,3.92
2023-03-07T22:42:19.647Z,3.90
2023-03-07T22:47:21.502Z,3.88
2023-03-07T22:52:23.364Z,3.87
2023-03-07T22:57:25.302Z,3.86
2023-03-07T23:02:28.321Z,3.87
2023-03-07T23:07:30.117Z,3.87
2023-03-07T23:12:31.969Z,3.84
2023-03-07T23:17:35.225Z,3.84
2023-03-07T23:22:38.559Z,3.83
2023-03-07T23:27:40.623Z,3.80
2023-03-07T23:32:42.804Z,3.75
2023-03-07T23:37:44.770Z,3.74
2023-03-07T23:42:46.865Z,3.73
2023-03-07T23:47:48.942Z,3.71
2023-03-07T23:52:50.885Z,3.65
2023-03-07T23:57:52.799Z,3.60
